createdAt,value
2019-03-23T00:00:38.360Z,18.60
2019-03-23T00:01:38.249Z,17.80
2019-03-23T00:02:38.277Z,18.40
2019-03-23T00:03:38.203Z,17.30
2019-03-23T00:04:38.207Z,17.40
2019-03-23T00:05:38.137Z,17.50
2019-03-23T00:06:38.228Z,17.80
2019-03-23T00:07:38.103Z,16.70
2019-03-23T00:08:38.133Z,17.40
2019-03-23T00:09:38.101Z,16.70
2019-03-23T00:10:39.063Z,16.80
2019-03-23T00:11:37.982Z,16.70
2019-03-23T00:13:37.975Z,17.80
2019-03-23T00:15:38.012Z,16.70
2019-03-23T00:59:18.001Z,20.20
2019-03-23T01:00:16.182Z,19.10
2019-03-23T01:01:16.157Z,18.60
2019-03-23T01:02:16.129Z,19.70
2019-03-23T01:03:16.115Z,20.10
2019-03-23T01:04:16.077Z,25.10
2019-03-23T01:05:16.126Z,22.70
2019-03-23T01:06:16.104Z,25.70
2019-03-23T01:07:15.993Z,23.20
2019-03-23T01:39:35.688Z,43.20
2019-03-23T01:40:36.283Z,42.80
2019-03-23T01:41:34.061Z,44.30
2019-03-23T01:42:35.068Z,43.80
2019-03-23T01:43:34.010Z,43.10
2019-03-23T01:44:34.053Z,44.00
2019-03-23T01:45:33.932Z,44.50
2019-03-23T01:46:33.965Z,45.90
2019-03-23T01:47:33.881Z,44.50
2019-03-23T01:48:33.900Z,42.90
2019-03-23T01:49:33.845Z,45.20
2019-03-23T01:50:33.906Z,45.50
2019-03-23T01:51:33.778Z,44.70
2019-03-23T01:52:33.804Z,44.80
2019-03-23T01:53:33.730Z,45.00
2019-03-23T01:54:33.742Z,44.80
2019-03-23T01:55:33.689Z,43.60
2019-03-23T01:56:33.750Z,45.00
2019-03-23T01:57:33.639Z,46.00
2019-03-23T01:58:33.697Z,47.40
2019-03-23T01:59:33.592Z,44.20
2019-03-23T02:00:33.567Z,47.80
2019-03-23T02:01:33.531Z,48.30
2019-03-23T02:02:33.587Z,49.50
2019-03-23T02:03:33.477Z,47.10
2019-03-23T02:04:33.535Z,50.50
2019-03-23T02:05:33.425Z,49.00
2019-03-23T02:06:33.432Z,49.90
2019-03-23T02:07:33.359Z,47.90
2019-03-23T02:08:33.344Z,48.00
2019-03-23T02:09:33.310Z,52.10
2019-03-23T02:10:33.366Z,46.70
2019-03-23T02:11:33.239Z,50.40
2019-03-23T02:12:33.277Z,49.60
2019-03-23T02:13:33.188Z,49.10
2019-03-23T02:14:33.278Z,51.20
2019-03-23T02:15:33.191Z,48.30
2019-03-23T02:16:33.193Z,50.90
2019-03-23T02:17:33.097Z,51.80
2019-03-23T02:18:33.102Z,47.70
2019-03-23T02:19:33.028Z,47.30
2019-03-23T02:20:33.115Z,50.00
2019-03-23T02:21:32.979Z,50.20
2019-03-23T02:22:33.023Z,49.00
2019-03-23T02:23:32.963Z,47.90
2019-03-23T02:24:33.046Z,49.80
2019-03-23T02:25:32.876Z,50.80
2019-03-23T02:26:32.924Z,51.00
2019-03-23T02:27:32.823Z,48.40
2019-03-23T02:28:32.825Z,49.30
2019-03-23T02:29:32.786Z,50.50
2019-03-23T02:30:32.842Z,51.20
2019-03-23T02:31:32.727Z,50.70
2019-03-23T02:32:32.759Z,49.70
2019-03-23T02:33:32.666Z,47.10
2019-03-23T02:34:32.675Z,50.10
2019-03-23T02:35:32.608Z,52.00
2019-03-23T02:36:32.689Z,51.50
2019-03-23T02:37:32.567Z,52.30
2019-03-23T02:38:32.596Z,50.50
2019-03-23T02:39:32.597Z,52.50
2019-03-23T02:40:32.499Z,51.50
2019-03-23T02:41:32.504Z,52.20
2019-03-23T02:42:32.518Z,51.50
2019-03-23T02:43:32.453Z,50.90
2019-03-23T02:44:32.522Z,49.40
2019-03-23T02:45:32.357Z,49.60
2019-03-23T02:46:32.407Z,49.90
2019-03-23T02:47:32.307Z,50.30
2019-03-23T02:48:32.386Z,50.10
2019-03-23T02:49:32.237Z,50.50
2019-03-23T02:50:32.270Z,50.90
2019-03-23T02:51:32.181Z,51.20
2019-03-23T02:52:32.174Z,51.70
2019-03-23T02:53:32.128Z,48.80
2019-03-23T02:54:32.187Z,51.40
2019-03-23T02:55:32.078Z,52.20
2019-03-23T02:56:32.115Z,48.60
2019-03-23T02:57:32.026Z,50.90
2019-03-23T02:58:32.114Z,50.60
2019-03-23T02:59:31.968Z,51.00
2019-03-23T03:00:32.025Z,49.70
2019-03-23T03:01:31.928Z,53.30
2019-03-23T03:02:31.936Z,51.80
2019-03-23T03:03:31.860Z,54.70
2019-03-23T03:04:31.952Z,55.80
2019-03-23T03:05:31.813Z,54.50
2019-03-23T03:06:31.861Z,55.00
2019-03-23T03:07:41.817Z,55.80
2019-03-23T03:08:31.758Z,56.10
2019-03-23T03:09:31.707Z,56.10
2019-03-23T03:10:31.777Z,56.60
2019-03-23T03:11:31.650Z,55.80
2019-03-23T03:12:31.688Z,57.40
2019-03-23T03:13:31.604Z,58.40
2019-03-23T03:14:31.602Z,57.70
2019-03-23T03:15:31.570Z,55.90
2019-03-23T03:16:31.620Z,58.10
2019-03-23T03:17:31.497Z,58.60
2019-03-23T03:18:31.530Z,57.80
2019-03-23T03:19:31.442Z,57.70
2019-03-23T03:20:31.433Z,55.90
2019-03-23T03:21:31.385Z,55.90
2019-03-23T03:22:31.446Z,58.70
2019-03-23T03:23:31.331Z,57.50
2019-03-23T03:24:31.360Z,58.00
2019-03-23T03:25:31.277Z,56.70
2019-03-23T03:26:31.278Z,60.40
2019-03-23T03:27:31.225Z,58.10
2019-03-23T03:28:31.295Z,56.50
2019-03-23T03:29:31.169Z,57.50
2019-03-23T03:30:31.243Z,56.30
2019-03-23T03:31:31.119Z,57.80
2019-03-23T03:32:32.132Z,55.00
2019-03-23T03:33:31.066Z,57.10
2019-03-23T03:34:31.123Z,56.00
2019-03-23T03:35:31.014Z,60.20
2019-03-23T03:36:31.055Z,58.70
2019-03-23T03:37:30.960Z,60.40
2019-03-23T03:38:30.942Z,56.70
2019-03-23T03:39:30.903Z,55.40
2019-03-23T03:40:30.966Z,58.60
2019-03-23T03:41:30.867Z,57.00
2019-03-23T03:42:30.868Z,56.90
2019-03-23T03:43:30.798Z,55.40
2019-03-23T03:44:30.784Z,57.60
2019-03-23T03:45:30.743Z,58.90
2019-03-23T03:46:30.801Z,60.00
2019-03-23T03:47:30.689Z,59.40
2019-03-23T03:48:30.722Z,56.00
2019-03-23T03:49:30.635Z,61.00
2019-03-23T03:50:30.623Z,57.70
2019-03-23T03:51:30.578Z,60.00
2019-03-23T03:52:30.634Z,58.70
2019-03-23T03:53:30.587Z,61.20
2019-03-23T03:54:30.547Z,60.90
2019-03-23T03:55:30.497Z,60.20
2019-03-23T03:56:30.560Z,59.60
2019-03-23T03:57:30.424Z,60.30
2019-03-23T03:58:30.466Z,59.10
2019-03-23T03:59:30.376Z,61.80
2019-03-23T04:00:30.377Z,64.90
2019-03-23T04:01:30.319Z,64.00
2019-03-23T04:02:30.393Z,61.90
2019-03-23T04:03:30.269Z,60.70
2019-03-23T04:04:30.305Z,62.30
2019-03-23T04:05:30.210Z,62.80
2019-03-23T04:06:30.228Z,62.50
2019-03-23T04:07:30.162Z,64.50
2019-03-23T04:08:30.230Z,59.90
2019-03-23T04:09:30.109Z,62.60
2019-03-23T04:10:30.150Z,61.00
2019-03-23T04:11:30.046Z,60.50
2019-03-23T04:12:30.064Z,60.20
2019-03-23T04:13:29.993Z,60.60
2019-03-23T04:14:30.986Z,57.00
2019-03-23T04:15:29.942Z,56.80
2019-03-23T04:16:29.983Z,59.30
2019-03-23T04:17:29.885Z,56.30
2019-03-23T04:18:29.889Z,58.30
2019-03-23T04:19:29.833Z,54.70
2019-03-23T04:20:29.916Z,58.40
2019-03-23T04:21:29.780Z,56.60
2019-03-23T04:22:29.848Z,58.40
2019-03-23T04:23:29.729Z,61.30
2019-03-23T04:24:29.729Z,57.40
2019-03-23T04:25:29.712Z,53.30
2019-03-23T04:26:29.914Z,59.60
2019-03-23T04:27:29.652Z,57.70
2019-03-23T04:28:30.651Z,52.80
2019-03-23T04:29:29.583Z,53.40
2019-03-23T04:30:44.308Z,54.50
2019-03-23T04:31:29.514Z,53.30
2019-03-23T04:32:44.313Z,55.30
2019-03-23T04:33:29.477Z,54.00
2019-03-23T04:35:29.426Z,55.20
2019-03-23T04:36:29.466Z,50.90
2019-03-23T04:37:29.360Z,51.70
2019-03-23T04:38:29.364Z,51.60
2019-03-23T04:39:29.299Z,52.90
2019-03-23T04:40:29.289Z,51.20
2019-03-23T04:41:29.243Z,52.70
2019-03-23T04:42:29.308Z,48.30
2019-03-23T04:43:29.196Z,47.50
2019-03-23T04:44:29.204Z,49.50
2019-03-23T04:45:29.135Z,50.60
2019-03-23T04:46:29.120Z,50.90
2019-03-23T04:47:29.095Z,51.20
2019-03-23T04:48:29.138Z,49.10
2019-03-23T04:49:29.031Z,49.20
2019-03-23T04:50:29.048Z,51.20
2019-03-23T04:51:28.969Z,49.30
2019-03-23T04:52:29.078Z,51.40
2019-03-23T04:53:28.912Z,51.10
2019-03-23T04:54:28.989Z,52.10
2019-03-23T04:55:28.861Z,49.00
2019-03-23T04:56:28.898Z,50.10
2019-03-23T04:57:28.833Z,51.10
2019-03-23T04:58:28.896Z,50.80
2019-03-23T04:59:28.749Z,50.30
2019-03-23T05:00:28.808Z,51.50
2019-03-23T05:01:28.702Z,50.70
2019-03-23T05:02:28.718Z,51.40
2019-03-23T05:03:28.663Z,50.50
2019-03-23T05:04:28.736Z,51.00
2019-03-23T05:05:28.594Z,53.60
2019-03-23T05:06:28.655Z,49.60
2019-03-23T05:07:28.536Z,48.50
2019-03-23T05:08:33.382Z,52.00
2019-03-23T05:09:28.498Z,50.70
2019-03-23T05:10:28.589Z,52.00
2019-03-23T05:11:28.519Z,51.50
2019-03-23T05:44:37.934Z,53.60
2019-03-23T05:45:36.261Z,54.50
2019-03-23T05:46:36.236Z,54.70
2019-03-23T05:47:36.209Z,53.30
2019-03-23T05:48:36.178Z,55.30
2019-03-23T05:49:36.158Z,58.30
2019-03-23T05:50:36.123Z,53.80
2019-03-23T05:51:36.104Z,48.10
2019-03-23T05:52:36.074Z,59.40
2019-03-23T05:53:36.039Z,56.30
2019-03-23T05:54:36.015Z,58.20
2019-03-23T05:55:36.016Z,58.20
2019-03-23T05:56:35.961Z,56.50
2019-03-23T05:57:36.003Z,58.10
2019-03-23T05:58:35.912Z,58.60
2019-03-23T05:59:35.896Z,56.60
2019-03-23T06:00:35.853Z,58.10
2019-03-23T06:01:35.836Z,57.10
2019-03-23T06:02:35.816Z,56.40
2019-03-23T06:03:35.777Z,56.70
2019-03-23T06:04:35.787Z,57.50
2019-03-23T06:05:35.724Z,55.70
2019-03-23T06:06:35.704Z,58.20
2019-03-23T06:07:35.687Z,56.90
2019-03-23T06:08:35.631Z,58.60
2019-03-23T06:09:35.610Z,57.30
2019-03-23T06:10:35.642Z,56.60
2019-03-23T06:11:35.546Z,58.20
2019-03-23T06:12:35.619Z,57.90
2019-03-23T06:13:35.500Z,52.90
2019-03-23T06:14:35.558Z,56.60
2019-03-23T06:15:35.452Z,54.40
2019-03-23T06:16:35.486Z,57.00
2019-03-23T06:17:35.399Z,55.80
2019-03-23T06:18:35.380Z,54.60
2019-03-23T06:19:35.331Z,53.10
2019-03-23T06:20:35.395Z,55.70
2019-03-23T06:21:35.283Z,55.20
2019-03-23T06:22:35.305Z,53.20
2019-03-23T06:23:35.223Z,53.50
2019-03-23T06:24:35.322Z,54.90
2019-03-23T06:25:35.177Z,54.00
2019-03-23T06:26:35.228Z,49.80
2019-03-23T06:27:35.121Z,53.20
2019-03-23T06:28:35.131Z,50.40
2019-03-23T06:29:35.074Z,52.80
2019-03-23T06:30:35.137Z,53.70
2019-03-23T06:31:35.011Z,54.30
2019-03-23T06:32:35.048Z,53.30
2019-03-23T06:33:34.957Z,52.50
2019-03-23T06:34:35.005Z,51.70
2019-03-23T06:35:34.900Z,53.40
2019-03-23T06:36:34.973Z,53.00
2019-03-23T06:37:34.867Z,52.20
2019-03-23T06:38:34.884Z,53.30
2019-03-23T06:39:34.788Z,55.30
2019-03-23T06:40:34.905Z,54.20
2019-03-23T06:41:34.737Z,51.30
2019-03-23T06:42:35.832Z,55.20
2019-03-23T06:43:34.687Z,49.10
2019-03-23T06:44:34.727Z,51.60
2019-03-23T06:45:34.641Z,51.10
2019-03-23T07:31:15.988Z,46.50
2019-03-23T07:32:15.734Z,44.00
2019-03-23T07:33:15.695Z,42.90
2019-03-23T07:34:15.667Z,43.40
2019-03-23T07:35:15.795Z,43.40
2019-03-23T07:36:15.614Z,44.40
2019-03-23T07:37:15.588Z,43.10
2019-03-23T07:38:15.723Z,43.60
2019-03-23T07:39:26.524Z,43.30
2019-03-23T07:40:15.529Z,45.70
2019-03-23T07:41:15.637Z,43.70
2019-03-23T07:42:15.451Z,43.70
2019-03-23T07:43:15.495Z,41.90
2019-03-23T07:44:15.405Z,43.40
2019-03-23T07:45:15.398Z,42.80
2019-03-23T07:46:15.385Z,44.70
2019-03-23T07:47:15.319Z,43.00
2019-03-23T07:48:15.301Z,44.70
2019-03-23T07:49:15.266Z,42.90
2019-03-23T07:50:15.247Z,41.80
2019-03-23T07:51:15.229Z,42.90
2019-03-23T07:52:15.186Z,42.80
2019-03-23T07:53:15.166Z,44.20
2019-03-23T07:54:16.274Z,42.60
2019-03-23T07:55:15.118Z,42.20
2019-03-23T07:56:23.917Z,42.00
2019-03-23T07:57:15.053Z,43.70
2019-03-23T07:58:16.159Z,41.30
2019-03-23T07:59:14.996Z,42.00
2019-03-23T08:00:23.844Z,41.10
2019-03-23T08:01:14.990Z,43.30
2019-03-23T08:02:16.995Z,41.70
2019-03-23T08:03:14.927Z,42.10
2019-03-23T08:04:14.994Z,42.40
2019-03-23T08:05:14.826Z,41.90
2019-03-23T08:06:14.885Z,41.30
2019-03-23T08:07:14.772Z,40.70
2019-03-23T08:08:16.788Z,40.00
2019-03-23T08:09:20.299Z,42.40
2019-03-23T08:10:16.834Z,41.90
2019-03-23T08:11:14.657Z,42.50
2019-03-23T08:12:23.368Z,41.20
2019-03-23T08:13:14.659Z,41.20
2019-03-23T08:14:22.477Z,41.20
2019-03-23T08:15:14.549Z,41.90
2019-03-23T08:16:15.673Z,42.00
2019-03-23T08:17:14.527Z,41.10
2019-03-23T08:18:14.581Z,42.20
2019-03-23T08:19:14.466Z,41.30
2019-03-23T08:20:16.512Z,42.10
2019-03-23T08:21:14.400Z,40.00
2019-03-23T08:22:22.362Z,40.70
2019-03-23T08:23:14.333Z,42.20
2019-03-23T08:24:29.474Z,42.60
2019-03-23T08:25:14.290Z,41.10
2019-03-23T08:26:14.419Z,41.00
2019-03-23T08:27:14.219Z,41.90
2019-03-23T08:28:15.362Z,41.40
2019-03-23T08:29:14.199Z,41.40
2019-03-23T08:30:16.271Z,41.40
2019-03-23T08:31:14.124Z,40.70
2019-03-23T08:33:14.069Z,39.60
2019-03-23T08:34:14.155Z,39.40
2019-03-23T08:35:14.153Z,41.90
2019-03-23T08:37:13.962Z,42.00
2019-03-23T08:38:14.086Z,42.10
2019-03-23T08:39:13.906Z,40.70
2019-03-23T08:40:16.062Z,41.50
2019-03-23T08:41:13.848Z,39.50
2019-03-23T08:42:13.902Z,40.90
2019-03-23T08:43:13.811Z,40.40
2019-03-23T08:44:41.472Z,41.10
2019-03-23T08:45:13.732Z,40.80
2019-03-23T08:46:13.823Z,42.00
2019-03-23T08:47:13.687Z,40.00
2019-03-23T08:48:14.773Z,41.20
2019-03-23T08:49:13.632Z,40.40
2019-03-23T08:50:28.576Z,41.00
2019-03-23T08:51:13.577Z,40.40
2019-03-23T08:52:14.715Z,40.40
2019-03-23T08:53:13.517Z,40.90
2019-03-23T08:54:13.583Z,40.20
2019-03-23T08:55:13.472Z,41.20
2019-03-23T08:56:14.519Z,41.60
2019-03-23T08:57:13.403Z,39.30
2019-03-23T08:58:34.373Z,38.20
2019-03-23T08:59:13.372Z,38.30
2019-03-23T09:00:30.409Z,39.70
2019-03-23T09:01:13.302Z,39.70
2019-03-23T09:02:36.355Z,41.20
2019-03-23T09:03:13.294Z,40.10
2019-03-23T09:04:13.225Z,37.70
2019-03-23T09:05:13.388Z,40.00
2019-03-23T09:06:13.160Z,39.00
2019-03-23T09:07:13.338Z,38.00
2019-03-23T09:08:13.092Z,38.80
2019-03-23T09:09:13.215Z,39.10
2019-03-23T09:10:13.079Z,38.80
2019-03-23T09:11:20.436Z,38.80
2019-03-23T09:12:12.998Z,38.70
2019-03-23T09:13:12.984Z,38.10
2019-03-23T09:14:12.943Z,39.20
2019-03-23T09:15:13.088Z,37.90
2019-03-23T09:16:12.930Z,38.60
2019-03-23T09:17:13.001Z,38.90
2019-03-23T09:18:12.837Z,39.60
2019-03-23T09:19:12.882Z,37.70
2019-03-23T09:20:12.773Z,38.00
2019-03-23T09:21:13.028Z,38.10
2019-03-23T09:22:12.740Z,38.10
2019-03-23T09:23:12.672Z,38.60
2019-03-23T09:24:12.639Z,37.20
2019-03-23T09:25:12.700Z,37.70
2019-03-23T09:26:13.739Z,38.10
2019-03-23T09:27:12.771Z,37.60
2019-03-23T09:28:12.649Z,37.10
2019-03-23T09:29:12.607Z,38.20
2019-03-23T09:30:12.549Z,37.00
2019-03-23T09:31:12.617Z,37.20
2019-03-23T09:32:12.634Z,37.00
2019-03-23T09:33:12.409Z,37.70
2019-03-23T09:34:12.648Z,37.60
2019-03-23T09:35:12.357Z,36.30
2019-03-23T09:36:13.408Z,37.30
2019-03-23T09:37:12.311Z,36.90
2019-03-23T09:38:13.403Z,36.60
2019-03-23T09:39:12.242Z,37.10
2019-03-23T09:40:12.290Z,36.10
2019-03-23T09:41:12.181Z,36.50
2019-03-23T09:42:12.202Z,37.20
2019-03-23T09:43:12.170Z,36.30
2019-03-23T09:44:18.965Z,36.30
2019-03-23T09:45:14.130Z,34.80
2019-03-23T09:46:13.278Z,36.50
2019-03-23T09:47:12.032Z,35.20
2019-03-23T09:48:14.211Z,34.00
2019-03-23T09:49:11.976Z,38.10
2019-03-23T09:50:12.139Z,36.00
2019-03-23T09:51:11.928Z,35.30
2019-03-23T09:52:14.106Z,35.70
2019-03-23T09:53:11.862Z,34.70
2019-03-23T09:54:12.010Z,35.70
2019-03-23T09:55:11.811Z,36.30
2019-03-23T09:56:11.970Z,36.50
2019-03-23T09:57:11.764Z,36.60
2019-03-23T09:58:11.886Z,38.80
2019-03-23T09:59:11.694Z,36.90
2019-03-23T10:00:26.479Z,36.60
2019-03-23T10:01:11.671Z,35.80
2019-03-23T10:02:28.516Z,36.40
2019-03-23T10:03:11.599Z,35.60
2019-03-23T10:04:11.623Z,34.60
2019-03-23T10:05:11.563Z,36.40
2019-03-23T10:06:11.541Z,35.40
2019-03-23T10:07:11.467Z,35.80
2019-03-23T10:08:19.413Z,34.60
2019-03-23T10:09:11.414Z,36.70
2019-03-23T10:10:21.386Z,36.10
2019-03-23T10:11:11.363Z,36.80
2019-03-23T10:12:20.357Z,36.10
2019-03-23T10:13:11.316Z,36.90
2019-03-23T10:14:11.357Z,34.10
2019-03-23T10:15:11.240Z,35.00
2019-03-23T10:16:13.340Z,35.90
2019-03-23T10:17:11.356Z,35.60
2019-03-23T10:18:13.277Z,34.90
2019-03-23T10:19:11.140Z,36.80
2019-03-23T10:20:19.920Z,35.90
2019-03-23T10:21:11.110Z,35.20
2019-03-23T10:22:12.183Z,34.10
2019-03-23T10:23:11.025Z,34.90
2019-03-23T10:24:32.010Z,34.00
2019-03-23T10:25:10.986Z,35.50
2019-03-23T10:26:12.994Z,35.40
2019-03-23T10:27:10.920Z,36.30
2019-03-23T10:28:19.864Z,36.10
2019-03-23T10:29:10.851Z,35.60
2019-03-23T10:30:10.950Z,35.40
2019-03-23T10:31:10.821Z,36.40
2019-03-23T10:32:10.876Z,34.60
2019-03-23T10:33:10.783Z,34.90
2019-03-23T10:34:10.838Z,34.80
2019-03-23T10:35:10.712Z,36.00
2019-03-23T10:36:12.262Z,35.20
2019-03-23T10:37:10.638Z,34.60
2019-03-23T10:38:10.709Z,33.10
2019-03-23T10:39:10.584Z,35.10
2019-03-23T10:40:34.427Z,34.80
2019-03-23T10:41:10.539Z,34.90
2019-03-23T10:42:31.603Z,35.60
2019-03-23T10:43:10.555Z,35.10
2019-03-23T10:44:12.588Z,34.40
2019-03-23T10:45:10.437Z,36.40
2019-03-23T10:46:19.546Z,35.60
2019-03-23T10:47:10.393Z,34.90
2019-03-23T10:48:12.166Z,35.40
2019-03-23T10:49:10.326Z,34.40
2019-03-23T10:50:10.433Z,33.60
2019-03-23T10:51:10.253Z,35.20
2019-03-23T10:52:10.393Z,33.60
2019-03-23T10:53:10.223Z,34.50
2019-03-23T10:54:10.237Z,34.60
2019-03-23T10:55:10.163Z,33.80
2019-03-23T10:56:10.245Z,34.50
2019-03-23T10:57:10.106Z,33.50
2019-03-23T10:58:10.171Z,34.40
2019-03-23T10:59:10.059Z,36.10
2019-03-23T11:00:10.186Z,34.80
2019-03-23T11:01:09.983Z,33.70
2019-03-23T11:02:10.105Z,35.10
2019-03-23T11:03:09.936Z,34.90
2019-03-23T11:04:09.998Z,34.30
2019-03-23T11:05:09.882Z,34.90
2019-03-23T11:06:09.918Z,34.10
2019-03-23T11:07:09.835Z,35.10
2019-03-23T11:08:09.923Z,36.70
2019-03-23T11:09:09.794Z,38.40
2019-03-23T11:10:09.837Z,38.70
2019-03-23T11:11:09.716Z,39.20
2019-03-23T11:12:09.747Z,37.60
2019-03-23T11:13:09.655Z,39.30
2019-03-23T11:14:09.760Z,36.40
2019-03-23T11:15:09.595Z,35.40
2019-03-23T11:16:09.697Z,34.10
2019-03-23T11:17:09.564Z,33.80
2019-03-23T11:18:09.593Z,32.10
2019-03-23T11:19:13.344Z,32.30
2019-03-23T11:20:09.601Z,33.20
2019-03-23T11:21:09.441Z,31.50
2019-03-23T11:22:09.525Z,32.50
2019-03-23T11:23:09.376Z,32.20
2019-03-23T11:24:09.521Z,34.30
2019-03-23T11:25:09.330Z,35.10
2019-03-23T11:26:09.430Z,34.50
2019-03-23T11:27:09.278Z,33.50
2019-03-23T11:28:09.343Z,33.80
2019-03-23T11:29:09.226Z,31.30
2019-03-23T11:30:09.364Z,33.90
2019-03-23T11:31:09.157Z,34.10
2019-03-23T11:32:09.277Z,33.30
2019-03-23T11:33:09.115Z,33.10
2019-03-23T11:34:17.536Z,34.40
2019-03-23T11:35:09.129Z,33.40
2019-03-23T11:36:09.208Z,34.20
2019-03-23T11:37:09.076Z,34.70
2019-03-23T11:38:09.120Z,33.70
2019-03-23T11:39:08.938Z,32.80
2019-03-23T11:40:09.015Z,35.00
2019-03-23T11:41:08.920Z,34.70
2019-03-23T11:42:09.043Z,34.20
2019-03-23T11:43:08.843Z,36.20
2019-03-23T11:44:08.948Z,35.80
2019-03-23T11:45:08.783Z,33.10
2019-03-23T11:46:08.857Z,35.50
2019-03-23T11:47:08.728Z,34.10
2019-03-23T11:48:08.863Z,33.30
2019-03-23T11:49:08.663Z,35.30
2019-03-23T11:50:08.774Z,32.50
2019-03-23T11:51:08.604Z,33.10
2019-03-23T11:52:16.467Z,33.90
2019-03-23T11:53:08.552Z,33.80
2019-03-23T11:54:10.736Z,33.70
2019-03-23T11:55:08.505Z,34.30
2019-03-23T11:56:15.519Z,36.10
2019-03-23T11:57:08.447Z,33.30
2019-03-23T11:59:08.399Z,34.20
2019-03-23T12:00:10.497Z,32.70
2019-03-23T12:01:08.350Z,32.40
2019-03-23T12:02:09.478Z,32.00
2019-03-23T12:03:08.289Z,32.10
2019-03-23T12:04:10.403Z,31.30
2019-03-23T12:05:08.236Z,31.00
2019-03-23T12:06:09.301Z,30.10
2019-03-23T12:07:08.179Z,30.70
2019-03-23T12:08:17.001Z,30.40
2019-03-23T12:09:08.132Z,33.30
2019-03-23T12:10:22.947Z,31.70
2019-03-23T12:11:08.088Z,31.60
2019-03-23T12:12:08.211Z,32.10
2019-03-23T12:13:08.015Z,31.40
2019-03-23T12:14:09.157Z,33.00
2019-03-23T12:15:07.959Z,31.80
2019-03-23T12:16:07.944Z,30.30
2019-03-23T12:17:07.901Z,30.90
2019-03-23T12:18:08.905Z,31.40
2019-03-23T12:19:07.861Z,32.50
2019-03-23T12:20:07.887Z,30.90
2019-03-23T12:21:07.804Z,32.20
2019-03-23T12:22:23.552Z,33.20
2019-03-23T12:23:07.754Z,33.40
2019-03-23T12:24:24.474Z,31.80
2019-03-23T12:25:07.685Z,31.80
2019-03-23T12:26:15.483Z,31.40
2019-03-23T12:27:07.643Z,30.40
2019-03-23T12:29:07.585Z,30.90
2019-03-23T12:30:07.807Z,29.70
2019-03-23T12:31:16.536Z,30.30
2019-03-23T12:32:07.498Z,30.00
2019-03-23T12:33:14.506Z,27.70
2019-03-23T12:34:07.435Z,27.80
2019-03-23T12:35:14.421Z,26.80
2019-03-23T12:36:07.381Z,26.50
2019-03-23T12:37:31.518Z,27.50
2019-03-23T12:38:07.338Z,27.10
2019-03-23T12:39:07.316Z,28.50
2019-03-23T12:40:28.269Z,29.50
2019-03-23T12:41:18.591Z,29.80
2019-03-23T12:42:09.336Z,30.60
2019-03-23T12:43:07.193Z,31.00
2019-03-23T12:44:22.059Z,31.80
2019-03-23T12:45:07.154Z,29.80
2019-03-23T12:46:08.139Z,30.10
2019-03-23T12:47:07.093Z,30.90
2019-03-23T12:48:13.892Z,30.50
2019-03-23T12:49:07.036Z,29.20
2019-03-23T12:50:09.097Z,28.60
2019-03-23T12:51:06.976Z,30.00
2019-03-23T12:52:06.961Z,29.00
2019-03-23T12:53:06.922Z,29.10
2019-03-23T12:54:06.888Z,30.50
2019-03-23T12:55:06.860Z,31.10
2019-03-23T12:56:23.441Z,30.90
2019-03-23T12:57:06.806Z,30.20
2019-03-23T12:58:06.833Z,33.10
2019-03-23T12:59:06.766Z,31.30
2019-03-23T13:00:06.860Z,31.50
2019-03-23T13:01:06.707Z,30.60
2019-03-23T13:02:07.800Z,29.00
2019-03-23T13:03:06.650Z,30.80
2019-03-23T13:04:06.695Z,30.60
2019-03-23T13:05:06.588Z,31.90
2019-03-23T13:06:06.641Z,31.90
2019-03-23T13:07:06.530Z,30.80
2019-03-23T13:08:06.559Z,32.10
2019-03-23T13:09:06.491Z,30.40
2019-03-23T13:10:06.566Z,31.70
2019-03-23T13:11:06.441Z,31.10
2019-03-23T13:12:06.489Z,31.50
2019-03-23T13:13:06.362Z,30.10
2019-03-23T13:14:06.387Z,30.10
2019-03-23T13:15:06.334Z,31.70
2019-03-23T13:16:06.414Z,31.60
2019-03-23T13:17:06.254Z,30.30
2019-03-23T13:18:06.318Z,29.90
2019-03-23T13:19:06.208Z,31.50
2019-03-23T13:20:08.680Z,32.10
2019-03-23T13:21:06.177Z,32.20
2019-03-23T13:22:06.240Z,32.70
2019-03-23T13:23:06.094Z,28.50
2019-03-23T13:24:06.159Z,31.40
2019-03-23T13:25:06.037Z,31.80
2019-03-23T13:26:06.072Z,32.50
2019-03-23T13:27:06.001Z,33.90
2019-03-23T13:28:05.978Z,33.70
2019-03-23T13:29:05.927Z,32.70
2019-03-23T13:30:05.988Z,34.40
2019-03-23T13:31:05.874Z,32.40
2019-03-23T13:32:05.900Z,33.10
2019-03-23T13:33:05.829Z,31.30
2019-03-23T13:34:05.913Z,32.70
2019-03-23T13:35:05.779Z,31.30
2019-03-23T13:36:05.824Z,30.70
2019-03-23T13:37:05.718Z,31.70
2019-03-23T13:38:05.735Z,31.70
2019-03-23T13:39:05.668Z,31.40
2019-03-23T13:40:05.661Z,32.90
2019-03-23T13:41:05.605Z,31.10
2019-03-23T13:42:05.655Z,31.40
2019-03-23T13:43:05.602Z,33.40
2019-03-23T13:44:05.576Z,32.90
2019-03-23T13:45:05.498Z,31.70
2019-03-23T13:46:05.585Z,33.00
2019-03-23T13:47:05.443Z,33.30
2019-03-23T13:48:05.528Z,32.00
2019-03-23T13:49:05.389Z,32.50
2019-03-23T13:50:05.439Z,34.10
2019-03-23T13:51:05.338Z,32.30
2019-03-23T13:52:05.325Z,32.30
2019-03-23T13:53:05.275Z,32.10
2019-03-23T13:54:05.403Z,32.80
2019-03-23T13:55:05.265Z,32.80
2019-03-23T13:56:05.332Z,33.70
2019-03-23T13:57:05.164Z,33.40
2019-03-23T13:58:05.162Z,34.40
2019-03-23T13:59:05.111Z,32.40
2019-03-23T14:00:05.175Z,34.80
2019-03-23T14:01:05.080Z,33.30
2019-03-23T14:02:05.125Z,34.50
2019-03-23T14:03:05.002Z,34.60
2019-03-23T14:04:05.091Z,35.40
2019-03-23T14:05:04.960Z,35.40
2019-03-23T14:06:04.942Z,34.70
2019-03-23T14:07:04.892Z,35.60
2019-03-23T14:08:04.925Z,33.80
2019-03-23T14:09:04.921Z,34.70
2019-03-23T14:10:04.839Z,34.50
2019-03-23T14:11:04.783Z,35.40
2019-03-23T14:12:04.852Z,34.50
2019-03-23T14:13:04.732Z,34.50
2019-03-23T14:14:04.771Z,34.60
2019-03-23T14:15:04.683Z,35.20
2019-03-23T14:16:04.672Z,35.40
2019-03-23T14:17:04.629Z,34.00
2019-03-23T14:18:04.707Z,36.40
2019-03-23T14:19:04.591Z,34.90
2019-03-23T14:20:04.595Z,34.20
2019-03-23T14:21:04.520Z,34.30
2019-03-23T14:22:04.506Z,35.50
2019-03-23T14:23:04.466Z,34.60
2019-03-23T14:24:04.560Z,35.70
2019-03-23T14:25:04.420Z,34.40
2019-03-23T14:26:04.478Z,34.10
2019-03-23T14:27:04.359Z,34.50
2019-03-23T14:28:04.321Z,32.60
2019-03-23T14:29:04.303Z,34.80
2019-03-23T14:30:06.307Z,33.30
2019-03-23T14:31:04.244Z,34.40
2019-03-23T14:32:04.266Z,33.20
2019-03-23T14:33:04.180Z,33.50
2019-03-23T14:34:06.250Z,33.50
2019-03-23T14:35:04.144Z,33.10
2019-03-23T14:36:05.213Z,35.00
2019-03-23T14:37:04.089Z,34.80
2019-03-23T14:38:04.191Z,34.80
2019-03-23T14:39:04.059Z,32.90
2019-03-23T14:40:18.993Z,35.90
2019-03-23T14:41:04.024Z,34.50
2019-03-23T14:42:05.167Z,33.00
2019-03-23T14:43:03.921Z,34.80
2019-03-23T14:44:03.939Z,32.60
2019-03-23T14:45:03.863Z,33.00
2019-03-23T14:46:03.977Z,34.30
2019-03-23T14:47:03.810Z,34.60
2019-03-23T14:48:04.879Z,34.60
2019-03-23T14:49:03.771Z,33.80
2019-03-23T14:50:10.500Z,35.40
2019-03-23T14:51:03.709Z,34.90
2019-03-23T14:53:03.660Z,34.10
2019-03-23T14:54:10.455Z,34.40
2019-03-23T14:55:03.584Z,33.40
2019-03-23T14:56:03.650Z,35.30
2019-03-23T14:57:03.567Z,34.60
2019-03-23T14:58:04.576Z,35.20
2019-03-23T14:59:03.481Z,34.20
2019-03-23T15:00:03.643Z,35.30
2019-03-23T15:01:03.434Z,34.40
2019-03-23T15:02:10.442Z,35.10
2019-03-23T15:03:03.385Z,34.70
2019-03-23T15:04:04.423Z,34.40
2019-03-23T15:05:03.319Z,35.10
2019-03-23T15:06:10.994Z,35.10
2019-03-23T15:07:03.277Z,34.10
2019-03-23T15:09:03.214Z,34.70
2019-03-23T15:10:04.292Z,36.30
2019-03-23T15:11:03.177Z,34.30
2019-03-23T15:12:19.030Z,35.30
2019-03-23T15:13:03.112Z,35.60
2019-03-23T15:14:11.036Z,34.70
2019-03-23T15:15:03.046Z,36.00
2019-03-23T15:16:05.154Z,35.20
2019-03-23T15:17:02.993Z,35.60
2019-03-23T15:18:10.978Z,35.30
2019-03-23T15:19:02.934Z,34.50
2019-03-23T15:20:09.959Z,33.70
2019-03-23T15:21:02.894Z,34.40
2019-03-23T15:22:02.904Z,33.90
2019-03-23T15:23:02.883Z,33.20
2019-03-23T15:24:02.831Z,32.80
2019-03-23T15:25:02.885Z,32.60
2019-03-23T15:26:02.744Z,33.70
2019-03-23T15:27:02.714Z,32.90
2019-03-23T15:28:02.699Z,33.50
2019-03-23T15:29:02.677Z,32.00
2019-03-23T15:30:02.771Z,32.10
2019-03-23T15:31:02.659Z,33.70
2019-03-23T15:32:04.643Z,31.20